sensor_id;sensor_type;location;lat;lon;timestamp;P1;durP1;ratioP1;P2;durP2;ratioP2
64543;SDS011;50936;51.660;5.616;2022-12-07T00:01:42;8.52;;;4.90;;
64543;SDS011;50936;51.660;5.616;2022-12-07T00:04:12;28.55;;;13.65;;
64543;SDS011;50936;51.660;5.616;2022-12-07T00:06:51;21.60;;;10.50;;
64543;SDS011;50936;51.660;5.616;2022-12-07T00:09:19;16.80;;;8.77;;
64543;SDS011;50936;51.660;5.616;2022-12-07T00:11:48;13.10;;;6.65;;
64543;SDS011;50936;51.660;5.616;2022-12-07T00:14:17;19.88;;;6.32;;
64543;SDS011;50936;51.660;5.616;2022-12-07T00:16:45;26.70;;;12.50;;
64543;SDS011;50936;51.660;5.616;2022-12-07T00:19:16;28.73;;;12.85;;
64543;SDS011;50936;51.660;5.616;2022-12-07T00:21:43;14.68;;;6.50;;
64543;SDS011;50936;51.660;5.616;2022-12-07T00:24:10;7.47;;;4.57;;
64543;SDS011;50936;51.660;5.616;2022-12-07T00:26:39;16.08;;;9.15;;
64543;SDS011;50936;51.660;5.616;2022-12-07T00:29:17;27.10;;;13.30;;
64543;SDS011;50936;51.660;5.616;2022-12-07T00:31:47;18.42;;;8.80;;
64543;SDS011;50936;51.660;5.616;2022-12-07T00:34:16;11.52;;;5.60;;
64543;SDS011;50936;51.660;5.616;2022-12-07T00:36:46;13.98;;;8.10;;
64543;SDS011;50936;51.660;5.616;2022-12-07T00:39:13;10.30;;;4.78;;
64543;SDS011;50936;51.660;5.616;2022-12-07T00:41:41;14.77;;;7.05;;
64543;SDS011;50936;51.660;5.616;2022-12-07T00:44:08;16.48;;;9.20;;
64543;SDS011;50936;51.660;5.616;2022-12-07T00:46:34;19.90;;;8.45;;
64543;SDS011;50936;51.660;5.616;2022-12-07T00:49:01;9.93;;;5.35;;
64543;SDS011;50936;51.660;5.616;2022-12-07T00:51:28;24.60;;;11.50;;
64543;SDS011;50936;51.660;5.616;2022-12-07T00:53:55;14.27;;;9.25;;
64543;SDS011;50936;51.660;5.616;2022-12-07T00:56:26;19.30;;;9.55;;
64543;SDS011;50936;51.660;5.616;2022-12-07T00:59:01;15.65;;;8.10;;
64543;SDS011;50936;51.660;5.616;2022-12-07T01:01:31;19.23;;;8.30;;
64543;SDS011;50936;51.660;5.616;2022-12-07T01:04:03;15.13;;;7.15;;
64543;SDS011;50936;51.660;5.616;2022-12-07T01:06:32;17.15;;;7.00;;
64543;SDS011;50936;51.660;5.616;2022-12-07T01:08:59;17.92;;;9.35;;
64543;SDS011;50936;51.660;5.616;2022-12-07T01:11:27;20.58;;;9.10;;
64543;SDS011;50936;51.660;5.616;2022-12-07T01:13:57;16.30;;;7.80;;
64543;SDS011;50936;51.660;5.616;2022-12-07T01:16:27;27.70;;;13.82;;
64543;SDS011;50936;51.660;5.616;2022-12-07T01:18:56;22.40;;;11.07;;
64543;SDS011;50936;51.660;5.616;2022-12-07T01:21:26;19.50;;;8.18;;
64543;SDS011;50936;51.660;5.616;2022-12-07T01:23:56;15.45;;;8.63;;
64543;SDS011;50936;51.660;5.616;2022-12-07T01:26:25;33.25;;;15.52;;
64543;SDS011;50936;51.660;5.616;2022-12-07T01:28:53;14.00;;;6.35;;
64543;SDS011;50936;51.660;5.616;2022-12-07T01:31:22;27.17;;;12.35;;
64543;SDS011;50936;51.660;5.616;2022-12-07T01:33:52;14.98;;;8.38;;
64543;SDS011;50936;51.660;5.616;2022-12-07T01:36:27;12.40;;;6.38;;
64543;SDS011;50936;51.660;5.616;2022-12-07T01:39:02;18.02;;;7.45;;
64543;SDS011;50936;51.660;5.616;2022-12-07T01:41:33;16.95;;;8.70;;
64543;SDS011;50936;51.660;5.616;2022-12-07T01:44:10;16.40;;;8.40;;
64543;SDS011;50936;51.660;5.616;2022-12-07T01:46:56;15.27;;;7.68;;
64543;SDS011;50936;51.660;5.616;2022-12-07T01:52:18;14.77;;;8.05;;
64543;SDS011;50936;51.660;5.616;2022-12-07T01:54:49;16.40;;;6.75;;
64543;SDS011;50936;51.660;5.616;2022-12-07T01:57:23;17.33;;;8.60;;
64543;SDS011;50936;51.660;5.616;2022-12-07T01:59:51;13.80;;;6.20;;
64543;SDS011;50936;51.660;5.616;2022-12-07T02:02:23;11.93;;;6.38;;
64543;SDS011;50936;51.660;5.616;2022-12-07T02:05:00;24.40;;;10.23;;
64543;SDS011;50936;51.660;5.616;2022-12-07T02:07:30;14.63;;;6.72;;
64543;SDS011;50936;51.660;5.616;2022-12-07T02:10:14;13.85;;;7.20;;
64543;SDS011;50936;51.660;5.616;2022-12-07T02:12:43;28.38;;;10.38;;
64543;SDS011;50936;51.660;5.616;2022-12-07T02:15:15;21.05;;;10.07;;
64543;SDS011;50936;51.660;5.616;2022-12-07T02:20:53;15.60;;;6.50;;
64543;SDS011;50936;51.660;5.616;2022-12-07T02:27:07;18.17;;;8.43;;
64543;SDS011;50936;51.660;5.616;2022-12-07T02:29:54;33.92;;;13.55;;
64543;SDS011;50936;51.660;5.616;2022-12-07T02:33:03;31.70;;;14.27;;
64543;SDS011;50936;51.660;5.616;2022-12-07T02:35:41;8.75;;;5.38;;
64543;SDS011;50936;51.660;5.616;2022-12-07T02:38:19;11.00;;;6.10;;
64543;SDS011;50936;51.660;5.616;2022-12-07T02:40:59;13.30;;;6.78;;
64543;SDS011;50936;51.660;5.616;2022-12-07T02:43:40;16.33;;;7.47;;
64543;SDS011;50936;51.660;5.616;2022-12-07T02:46:14;10.52;;;5.25;;
64543;SDS011;50936;51.660;5.616;2022-12-07T02:48:49;12.10;;;5.85;;
64543;SDS011;50936;51.660;5.616;2022-12-07T02:51:18;16.88;;;6.28;;
64543;SDS011;50936;51.660;5.616;2022-12-07T02:53:46;9.95;;;5.25;;
64543;SDS011;50936;51.660;5.616;2022-12-07T02:59:13;28.63;;;12.55;;
64543;SDS011;50936;51.660;5.616;2022-12-07T03:02:23;34.38;;;13.25;;
64543;SDS011;50936;51.660;5.616;2022-12-07T03:05:18;23.05;;;9.98;;
64543;SDS011;50936;51.660;5.616;2022-12-07T03:16:10;31.88;;;13.60;;
64543;SDS011;50936;51.660;5.616;2022-12-07T03:19:01;29.55;;;12.95;;
64543;SDS011;50936;51.660;5.616;2022-12-07T03:21:33;25.52;;;10.90;;
64543;SDS011;50936;51.660;5.616;2022-12-07T03:24:12;26.33;;;12.10;;
64543;SDS011;50936;51.660;5.616;2022-12-07T03:26:49;19.13;;;10.07;;
64543;SDS011;50936;51.660;5.616;2022-12-07T03:29:24;11.07;;;5.93;;
64543;SDS011;50936;51.660;5.616;2022-12-07T03:31:59;20.08;;;8.35;;
64543;SDS011;50936;51.660;5.616;2022-12-07T03:34:56;18.73;;;7.78;;
64543;SDS011;50936;51.660;5.616;2022-12-07T03:37:29;14.77;;;7.13;;
64543;SDS011;50936;51.660;5.616;2022-12-07T03:42:39;15.07;;;6.15;;
64543;SDS011;50936;51.660;5.616;2022-12-07T03:45:06;9.35;;;5.50;;
64543;SDS011;50936;51.660;5.616;2022-12-07T03:47:35;7.20;;;3.70;;
64543;SDS011;50936;51.660;5.616;2022-12-07T03:50:31;13.98;;;7.18;;
64543;SDS011;50936;51.660;5.616;2022-12-07T03:53:14;11.93;;;6.10;;
64543;SDS011;50936;51.660;5.616;2022-12-07T03:55:48;10.98;;;4.85;;
64543;SDS011;50936;51.660;5.616;2022-12-07T03:58:18;12.23;;;5.78;;
64543;SDS011;50936;51.660;5.616;2022-12-07T04:00:48;10.77;;;5.47;;
64543;SDS011;50936;51.660;5.616;2022-12-07T04:03:16;19.50;;;9.45;;
64543;SDS011;50936;51.660;5.616;2022-12-07T04:05:43;12.52;;;6.20;;
64543;SDS011;50936;51.660;5.616;2022-12-07T04:08:11;12.27;;;5.75;;
64543;SDS011;50936;51.660;5.616;2022-12-07T04:10:38;22.55;;;9.02;;
64543;SDS011;50936;51.660;5.616;2022-12-07T04:13:05;18.40;;;8.15;;
64543;SDS011;50936;51.660;5.616;2022-12-07T04:15:32;26.23;;;9.63;;
64543;SDS011;50936;51.660;5.616;2022-12-07T04:17:59;7.50;;;3.80;;
64543;SDS011;50936;51.660;5.616;2022-12-07T04:20:26;9.10;;;4.38;;
64543;SDS011;50936;51.660;5.616;2022-12-07T04:22:52;6.40;;;2.95;;
64543;SDS011;50936;51.660;5.616;2022-12-07T04:25:19;9.00;;;4.07;;
64543;SDS011;50936;51.660;5.616;2022-12-07T04:27:46;11.27;;;4.25;;
64543;SDS011;50936;51.660;5.616;2022-12-07T04:30:13;20.05;;;8.95;;
64543;SDS011;50936;51.660;5.616;2022-12-07T04:32:40;19.30;;;9.00;;
64543;SDS011;50936;51.660;5.616;2022-12-07T04:35:06;15.93;;;8.60;;
64543;SDS011;50936;51.660;5.616;2022-12-07T04:37:34;17.48;;;8.15;;
64543;SDS011;50936;51.660;5.616;2022-12-07T04:40:01;18.35;;;6.53;;
64543;SDS011;50936;51.660;5.616;2022-12-07T04:42:29;9.13;;;4.32;;
64543;SDS011;50936;51.660;5.616;2022-12-07T04:44:55;7.03;;;3.88;;
64543;SDS011;50936;51.660;5.616;2022-12-07T04:47:22;6.07;;;3.53;;
64543;SDS011;50936;51.660;5.616;2022-12-07T04:49:49;10.48;;;4.15;;
64543;SDS011;50936;51.660;5.616;2022-12-07T04:52:15;8.25;;;4.35;;
64543;SDS011;50936;51.660;5.616;2022-12-07T04:54:42;12.05;;;2.40;;
64543;SDS011;50936;51.660;5.616;2022-12-07T04:57:09;8.52;;;4.07;;
64543;SDS011;50936;51.660;5.616;2022-12-07T04:59:36;13.10;;;3.85;;
64543;SDS011;50936;51.660;5.616;2022-12-07T05:02:09;6.72;;;4.28;;
64543;SDS011;50936;51.660;5.616;2022-12-07T05:04:35;9.77;;;3.65;;
64543;SDS011;50936;51.660;5.616;2022-12-07T05:07:02;8.68;;;3.40;;
64543;SDS011;50936;51.660;5.616;2022-12-07T05:09:29;10.35;;;4.65;;
64543;SDS011;50936;51.660;5.616;2022-12-07T05:11:56;13.55;;;5.57;;
64543;SDS011;50936;51.660;5.616;2022-12-07T05:14:22;6.78;;;3.30;;
64543;SDS011;50936;51.660;5.616;2022-12-07T05:16:49;10.13;;;4.88;;
64543;SDS011;50936;51.660;5.616;2022-12-07T05:19:17;8.57;;;4.03;;
64543;SDS011;50936;51.660;5.616;2022-12-07T05:21:45;13.48;;;5.75;;
64543;SDS011;50936;51.660;5.616;2022-12-07T05:24:13;7.65;;;3.75;;
64543;SDS011;50936;51.660;5.616;2022-12-07T05:26:43;9.65;;;5.18;;
64543;SDS011;50936;51.660;5.616;2022-12-07T05:29:12;9.50;;;4.20;;
64543;SDS011;50936;51.660;5.616;2022-12-07T05:31:41;13.13;;;4.55;;
64543;SDS011;50936;51.660;5.616;2022-12-07T05:34:10;13.75;;;6.10;;
64543;SDS011;50936;51.660;5.616;2022-12-07T05:36:37;10.05;;;4.28;;
64543;SDS011;50936;51.660;5.616;2022-12-07T05:39:05;10.63;;;3.85;;
64543;SDS011;50936;51.660;5.616;2022-12-07T05:41:33;10.57;;;3.45;;
64543;SDS011;50936;51.660;5.616;2022-12-07T05:44:18;4.50;;;2.53;;
64543;SDS011;50936;51.660;5.616;2022-12-07T05:46:45;9.35;;;2.92;;
64543;SDS011;50936;51.660;5.616;2022-12-07T05:49:12;6.32;;;2.95;;
64543;SDS011;50936;51.660;5.616;2022-12-07T05:51:39;5.57;;;3.05;;
64543;SDS011;50936;51.660;5.616;2022-12-07T05:54:05;20.45;;;4.18;;
64543;SDS011;50936;51.660;5.616;2022-12-07T05:56:32;8.02;;;3.05;;
64543;SDS011;50936;51.660;5.616;2022-12-07T05:58:59;11.30;;;3.97;;
64543;SDS011;50936;51.660;5.616;2022-12-07T06:01:44;13.80;;;4.25;;
64543;SDS011;50936;51.660;5.616;2022-12-07T06:04:12;9.48;;;4.10;;
64543;SDS011;50936;51.660;5.616;2022-12-07T06:06:38;14.90;;;5.45;;
64543;SDS011;50936;51.660;5.616;2022-12-07T06:09:05;12.48;;;5.30;;
64543;SDS011;50936;51.660;5.616;2022-12-07T06:11:32;12.63;;;5.30;;
64543;SDS011;50936;51.660;5.616;2022-12-07T06:14:17;5.25;;;3.33;;
64543;SDS011;50936;51.660;5.616;2022-12-07T06:16:44;6.35;;;3.05;;
64543;SDS011;50936;51.660;5.616;2022-12-07T06:19:12;10.23;;;5.25;;
64543;SDS011;50936;51.660;5.616;2022-12-07T06:21:39;15.40;;;6.88;;
64543;SDS011;50936;51.660;5.616;2022-12-07T06:24:06;15.07;;;6.65;;
64543;SDS011;50936;51.660;5.616;2022-12-07T06:26:33;12.63;;;4.93;;
64543;SDS011;50936;51.660;5.616;2022-12-07T06:29:00;16.83;;;6.93;;
64543;SDS011;50936;51.660;5.616;2022-12-07T06:31:27;12.55;;;4.82;;
64543;SDS011;50936;51.660;5.616;2022-12-07T06:33:58;4.10;;;2.05;;
64543;SDS011;50936;51.660;5.616;2022-12-07T06:36:27;9.68;;;4.15;;
64543;SDS011;50936;51.660;5.616;2022-12-07T06:38:54;15.20;;;6.75;;
64543;SDS011;50936;51.660;5.616;2022-12-07T06:41:21;13.50;;;6.97;;
64543;SDS011;50936;51.660;5.616;2022-12-07T06:43:49;6.82;;;2.85;;
64543;SDS011;50936;51.660;5.616;2022-12-07T06:46:21;7.13;;;3.78;;
64543;SDS011;50936;51.660;5.616;2022-12-07T06:48:49;7.97;;;3.33;;
64543;SDS011;50936;51.660;5.616;2022-12-07T06:51:16;11.30;;;3.75;;
64543;SDS011;50936;51.660;5.616;2022-12-07T06:53:43;7.70;;;3.33;;
64543;SDS011;50936;51.660;5.616;2022-12-07T06:56:10;11.13;;;3.42;;
64543;SDS011;50936;51.660;5.616;2022-12-07T06:58:36;9.25;;;3.90;;
64543;SDS011;50936;51.660;5.616;2022-12-07T07:01:08;6.10;;;3.25;;
64543;SDS011;50936;51.660;5.616;2022-12-07T07:03:41;10.43;;;3.85;;
64543;SDS011;50936;51.660;5.616;2022-12-07T07:06:08;14.05;;;5.28;;
64543;SDS011;50936;51.660;5.616;2022-12-07T07:08:36;7.88;;;4.63;;
64543;SDS011;50936;51.660;5.616;2022-12-07T07:11:04;16.42;;;7.70;;
64543;SDS011;50936;51.660;5.616;2022-12-07T07:13:32;8.48;;;3.55;;
64543;SDS011;50936;51.660;5.616;2022-12-07T07:15:59;24.90;;;8.40;;
64543;SDS011;50936;51.660;5.616;2022-12-07T07:18:27;4.85;;;3.17;;
64543;SDS011;50936;51.660;5.616;2022-12-07T07:20:54;10.77;;;5.35;;
64543;SDS011;50936;51.660;5.616;2022-12-07T07:23:22;6.32;;;3.42;;
64543;SDS011;50936;51.660;5.616;2022-12-07T07:25:48;7.53;;;4.22;;
64543;SDS011;50936;51.660;5.616;2022-12-07T07:28:15;10.07;;;4.57;;
64543;SDS011;50936;51.660;5.616;2022-12-07T07:30:43;16.30;;;5.75;;
64543;SDS011;50936;51.660;5.616;2022-12-07T07:33:10;9.40;;;3.60;;
64543;SDS011;50936;51.660;5.616;2022-12-07T07:35:38;21.55;;;7.68;;
64543;SDS011;50936;51.660;5.616;2022-12-07T07:38:06;24.95;;;9.40;;
64543;SDS011;50936;51.660;5.616;2022-12-07T07:40:33;20.08;;;9.68;;
64543;SDS011;50936;51.660;5.616;2022-12-07T07:43:01;22.77;;;9.65;;
64543;SDS011;50936;51.660;5.616;2022-12-07T07:45:28;20.08;;;9.73;;
64543;SDS011;50936;51.660;5.616;2022-12-07T07:47:54;19.90;;;6.90;;
64543;SDS011;50936;51.660;5.616;2022-12-07T07:50:21;16.58;;;7.72;;
64543;SDS011;50936;51.660;5.616;2022-12-07T07:52:48;9.65;;;4.35;;
64543;SDS011;50936;51.660;5.616;2022-12-07T07:55:17;12.93;;;5.97;;
64543;SDS011;50936;51.660;5.616;2022-12-07T07:57:44;13.50;;;4.22;;
64543;SDS011;50936;51.660;5.616;2022-12-07T08:00:19;16.17;;;5.50;;
64543;SDS011;50936;51.660;5.616;2022-12-07T08:02:46;9.73;;;4.00;;
64543;SDS011;50936;51.660;5.616;2022-12-07T08:05:13;9.30;;;4.30;;
64543;SDS011;50936;51.660;5.616;2022-12-07T08:07:43;16.20;;;5.57;;
64543;SDS011;50936;51.660;5.616;2022-12-07T08:10:11;7.53;;;4.38;;
64543;SDS011;50936;51.660;5.616;2022-12-07T08:12:40;14.77;;;7.15;;
64543;SDS011;50936;51.660;5.616;2022-12-07T08:15:28;12.07;;;4.10;;
64543;SDS011;50936;51.660;5.616;2022-12-07T08:17:57;8.35;;;4.90;;
64543;SDS011;50936;51.660;5.616;2022-12-07T08:20:25;10.80;;;3.42;;
64543;SDS011;50936;51.660;5.616;2022-12-07T08:22:52;9.70;;;4.68;;
64543;SDS011;50936;51.660;5.616;2022-12-07T08:25:19;8.10;;;4.50;;
64543;SDS011;50936;51.660;5.616;2022-12-07T08:27:48;12.18;;;5.68;;
64543;SDS011;50936;51.660;5.616;2022-12-07T08:30:17;12.93;;;5.18;;
64543;SDS011;50936;51.660;5.616;2022-12-07T08:32:45;15.13;;;7.03;;
64543;SDS011;50936;51.660;5.616;2022-12-07T08:35:14;9.32;;;5.00;;
64543;SDS011;50936;51.660;5.616;2022-12-07T08:37:42;10.73;;;4.43;;
64543;SDS011;50936;51.660;5.616;2022-12-07T08:40:09;8.75;;;4.28;;
64543;SDS011;50936;51.660;5.616;2022-12-07T08:42:42;14.13;;;6.78;;
64543;SDS011;50936;51.660;5.616;2022-12-07T08:45:11;21.83;;;8.85;;
64543;SDS011;50936;51.660;5.616;2022-12-07T08:47:41;15.60;;;7.50;;
64543;SDS011;50936;51.660;5.616;2022-12-07T08:50:18;6.95;;;3.83;;
64543;SDS011;50936;51.660;5.616;2022-12-07T08:52:50;8.63;;;4.90;;
64543;SDS011;50936;51.660;5.616;2022-12-07T08:55:22;10.93;;;3.88;;
64543;SDS011;50936;51.660;5.616;2022-12-07T08:57:50;15.50;;;4.85;;
64543;SDS011;50936;51.660;5.616;2022-12-07T09:00:17;9.98;;;4.18;;
64543;SDS011;50936;51.660;5.616;2022-12-07T09:02:46;10.82;;;3.55;;
64543;SDS011;50936;51.660;5.616;2022-12-07T09:05:13;20.23;;;5.97;;
64543;SDS011;50936;51.660;5.616;2022-12-07T09:07:43;14.70;;;6.05;;
64543;SDS011;50936;51.660;5.616;2022-12-07T09:10:14;6.53;;;3.50;;
64543;SDS011;50936;51.660;5.616;2022-12-07T09:12:41;13.45;;;6.50;;
64543;SDS011;50936;51.660;5.616;2022-12-07T09:15:08;7.78;;;2.85;;
64543;SDS011;50936;51.660;5.616;2022-12-07T09:17:35;10.82;;;4.43;;
64543;SDS011;50936;51.660;5.616;2022-12-07T09:20:04;11.02;;;5.85;;
64543;SDS011;50936;51.660;5.616;2022-12-07T09:22:32;8.10;;;4.30;;
64543;SDS011;50936;51.660;5.616;2022-12-07T09:24:59;17.08;;;7.30;;
64543;SDS011;50936;51.660;5.616;2022-12-07T09:27:28;11.35;;;5.15;;
64543;SDS011;50936;51.660;5.616;2022-12-07T09:29:55;2.47;;;1.83;;
64543;SDS011;50936;51.660;5.616;2022-12-07T09:32:22;7.03;;;2.85;;
64543;SDS011;50936;51.660;5.616;2022-12-07T09:34:49;3.67;;;2.08;;
64543;SDS011;50936;51.660;5.616;2022-12-07T09:37:16;6.68;;;2.90;;
64543;SDS011;50936;51.660;5.616;2022-12-07T09:39:43;7.05;;;3.55;;
64543;SDS011;50936;51.660;5.616;2022-12-07T09:42:35;8.95;;;3.40;;
64543;SDS011;50936;51.660;5.616;2022-12-07T09:45:14;17.15;;;5.18;;
64543;SDS011;50936;51.660;5.616;2022-12-07T09:47:53;6.28;;;2.95;;
64543;SDS011;50936;51.660;5.616;2022-12-07T09:50:22;7.47;;;3.05;;
64543;SDS011;50936;51.660;5.616;2022-12-07T09:52:53;19.27;;;5.00;;
64543;SDS011;50936;51.660;5.616;2022-12-07T09:55:36;13.32;;;5.50;;
64543;SDS011;50936;51.660;5.616;2022-12-07T09:58:09;10.02;;;4.60;;
64543;SDS011;50936;51.660;5.616;2022-12-07T10:00:49;5.35;;;2.53;;
64543;SDS011;50936;51.660;5.616;2022-12-07T10:03:21;8.73;;;3.67;;
64543;SDS011;50936;51.660;5.616;2022-12-07T10:05:49;5.65;;;2.47;;
64543;SDS011;50936;51.660;5.616;2022-12-07T10:08:19;7.50;;;3.70;;
64543;SDS011;50936;51.660;5.616;2022-12-07T10:10:48;8.90;;;4.30;;
64543;SDS011;50936;51.660;5.616;2022-12-07T10:13:34;7.43;;;2.70;;
64543;SDS011;50936;51.660;5.616;2022-12-07T10:21:58;9.50;;;3.10;;
64543;SDS011;50936;51.660;5.616;2022-12-07T10:27:18;5.88;;;2.75;;
64543;SDS011;50936;51.660;5.616;2022-12-07T10:29:52;7.20;;;3.10;;
64543;SDS011;50936;51.660;5.616;2022-12-07T10:34:46;8.95;;;2.95;;
64543;SDS011;50936;51.660;5.616;2022-12-07T10:37:18;7.22;;;3.17;;
64543;SDS011;50936;51.660;5.616;2022-12-07T10:39:47;7.60;;;3.63;;
64543;SDS011;50936;51.660;5.616;2022-12-07T10:44:50;8.50;;;2.85;;
64543;SDS011;50936;51.660;5.616;2022-12-07T10:56:53;9.30;;;2.00;;
64543;SDS011;50936;51.660;5.616;2022-12-07T10:59:41;6.45;;;2.50;;
64543;SDS011;50936;51.660;5.616;2022-12-07T11:13:52;7.43;;;2.30;;
64543;SDS011;50936;51.660;5.616;2022-12-07T11:16:55;7.88;;;2.35;;
64543;SDS011;50936;51.660;5.616;2022-12-07T11:19:54;9.48;;;3.58;;
64543;SDS011;50936;51.660;5.616;2022-12-07T11:22:34;5.85;;;2.58;;
64543;SDS011;50936;51.660;5.616;2022-12-07T11:34:06;7.90;;;3.10;;
64543;SDS011;50936;51.660;5.616;2022-12-07T11:36:45;8.40;;;2.38;;
64543;SDS011;50936;51.660;5.616;2022-12-07T11:41:46;7.18;;;3.03;;
64543;SDS011;50936;51.660;5.616;2022-12-07T11:44:31;4.22;;;2.05;;
64543;SDS011;50936;51.660;5.616;2022-12-07T11:47:21;10.48;;;4.03;;
64543;SDS011;50936;51.660;5.616;2022-12-07T11:50:07;7.72;;;2.38;;
64543;SDS011;50936;51.660;5.616;2022-12-07T11:52:53;9.35;;;3.10;;
64543;SDS011;50936;51.660;5.616;2022-12-07T12:01:19;8.27;;;2.17;;
64543;SDS011;50936;51.660;5.616;2022-12-07T12:04:07;8.77;;;3.05;;
64543;SDS011;50936;51.660;5.616;2022-12-07T12:06:54;5.28;;;2.30;;
64543;SDS011;50936;51.660;5.616;2022-12-07T12:12:19;5.93;;;3.38;;
64543;SDS011;50936;51.660;5.616;2022-12-07T12:18:32;5.70;;;2.78;;
64543;SDS011;50936;51.660;5.616;2022-12-07T12:21:15;6.32;;;2.80;;
64543;SDS011;50936;51.660;5.616;2022-12-07T12:23:59;7.97;;;2.83;;
64543;SDS011;50936;51.660;5.616;2022-12-07T12:26:35;8.98;;;2.45;;
64543;SDS011;50936;51.660;5.616;2022-12-07T12:29:05;8.00;;;1.85;;
64543;SDS011;50936;51.660;5.616;2022-12-07T12:32:06;6.25;;;2.05;;
64543;SDS011;50936;51.660;5.616;2022-12-07T12:42:44;5.90;;;2.00;;
64543;SDS011;50936;51.660;5.616;2022-12-07T12:45:18;7.57;;;1.90;;
64543;SDS011;50936;51.660;5.616;2022-12-07T12:56:49;6.30;;;1.33;;
64543;SDS011;50936;51.660;5.616;2022-12-07T12:59:28;8.25;;;1.27;;
64543;SDS011;50936;51.660;5.616;2022-12-07T13:15:44;5.78;;;1.70;;
64543;SDS011;50936;51.660;5.616;2022-12-07T13:23:36;5.43;;;1.83;;
64543;SDS011;50936;51.660;5.616;2022-12-07T13:31:39;5.43;;;2.10;;
64543;SDS011;50936;51.660;5.616;2022-12-07T13:34:27;6.55;;;1.70;;
64543;SDS011;50936;51.660;5.616;2022-12-07T13:37:08;3.85;;;1.45;;
64543;SDS011;50936;51.660;5.616;2022-12-07T13:39:47;6.50;;;2.08;;
64543;SDS011;50936;51.660;5.616;2022-12-07T13:42:28;4.88;;;1.40;;
64543;SDS011;50936;51.660;5.616;2022-12-07T13:44:58;4.28;;;1.55;;
64543;SDS011;50936;51.660;5.616;2022-12-07T13:47:52;12.95;;;2.30;;
64543;SDS011;50936;51.660;5.616;2022-12-07T13:50:24;4.25;;;1.67;;
64543;SDS011;50936;51.660;5.616;2022-12-07T13:52:58;4.10;;;1.52;;
64543;SDS011;50936;51.660;5.616;2022-12-07T13:55:28;7.38;;;2.65;;
64543;SDS011;50936;51.660;5.616;2022-12-07T13:57:55;4.75;;;2.25;;
64543;SDS011;50936;51.660;5.616;2022-12-07T14:00:24;8.70;;;3.25;;
64543;SDS011;50936;51.660;5.616;2022-12-07T14:05:33;7.75;;;2.85;;
64543;SDS011;50936;51.660;5.616;2022-12-07T14:08:03;8.02;;;2.65;;
64543;SDS011;50936;51.660;5.616;2022-12-07T14:16:35;7.22;;;2.22;;
64543;SDS011;50936;51.660;5.616;2022-12-07T14:19:05;5.95;;;2.03;;
64543;SDS011;50936;51.660;5.616;2022-12-07T14:27:32;5.40;;;2.10;;
64543;SDS011;50936;51.660;5.616;2022-12-07T14:30:01;6.20;;;2.33;;
64543;SDS011;50936;51.660;5.616;2022-12-07T14:32:30;7.38;;;1.38;;
64543;SDS011;50936;51.660;5.616;2022-12-07T14:34:59;3.72;;;0.90;;
64543;SDS011;50936;51.660;5.616;2022-12-07T14:37:40;2.55;;;1.00;;
64543;SDS011;50936;51.660;5.616;2022-12-07T14:40:11;5.35;;;1.50;;
64543;SDS011;50936;51.660;5.616;2022-12-07T14:42:53;5.55;;;1.13;;
64543;SDS011;50936;51.660;5.616;2022-12-07T14:45:26;4.60;;;1.60;;
64543;SDS011;50936;51.660;5.616;2022-12-07T14:47:53;5.35;;;1.20;;
64543;SDS011;50936;51.660;5.616;2022-12-07T14:50:41;6.18;;;1.65;;
64543;SDS011;50936;51.660;5.616;2022-12-07T14:53:39;6.22;;;1.67;;
64543;SDS011;50936;51.660;5.616;2022-12-07T14:56:23;3.92;;;1.33;;
64543;SDS011;50936;51.660;5.616;2022-12-07T14:58:51;1.77;;;1.00;;
64543;SDS011;50936;51.660;5.616;2022-12-07T15:01:18;5.43;;;1.73;;
64543;SDS011;50936;51.660;5.616;2022-12-07T15:03:44;8.93;;;1.88;;
64543;SDS011;50936;51.660;5.616;2022-12-07T15:06:15;10.43;;;2.63;;
64543;SDS011;50936;51.660;5.616;2022-12-07T15:08:47;3.22;;;1.40;;
64543;SDS011;50936;51.660;5.616;2022-12-07T15:11:15;2.03;;;1.10;;
64543;SDS011;50936;51.660;5.616;2022-12-07T15:13:43;3.03;;;1.00;;
64543;SDS011;50936;51.660;5.616;2022-12-07T15:16:28;2.33;;;1.00;;
64543;SDS011;50936;51.660;5.616;2022-12-07T15:19:20;5.07;;;1.48;;
64543;SDS011;50936;51.660;5.616;2022-12-07T15:21:55;2.40;;;1.23;;
64543;SDS011;50936;51.660;5.616;2022-12-07T15:24:23;10.00;;;2.20;;
64543;SDS011;50936;51.660;5.616;2022-12-07T15:26:50;6.63;;;1.88;;
64543;SDS011;50936;51.660;5.616;2022-12-07T15:29:18;3.47;;;1.40;;
64543;SDS011;50936;51.660;5.616;2022-12-07T15:31:49;3.15;;;1.23;;
64543;SDS011;50936;51.660;5.616;2022-12-07T15:34:24;1.80;;;1.15;;
64543;SDS011;50936;51.660;5.616;2022-12-07T15:36:58;2.72;;;1.23;;
64543;SDS011;50936;51.660;5.616;2022-12-07T15:39:25;4.95;;;1.67;;
64543;SDS011;50936;51.660;5.616;2022-12-07T15:41:52;3.20;;;1.58;;
64543;SDS011;50936;51.660;5.616;2022-12-07T15:44:18;3.72;;;1.75;;
64543;SDS011;50936;51.660;5.616;2022-12-07T15:47:04;7.30;;;2.13;;
64543;SDS011;50936;51.660;5.616;2022-12-07T15:49:32;7.07;;;2.38;;
64543;SDS011;50936;51.660;5.616;2022-12-07T15:51:59;6.05;;;2.50;;
64543;SDS011;50936;51.660;5.616;2022-12-07T15:54:26;12.50;;;3.67;;
64543;SDS011;50936;51.660;5.616;2022-12-07T15:56:55;10.43;;;3.03;;
64543;SDS011;50936;51.660;5.616;2022-12-07T15:59:22;10.40;;;3.05;;
64543;SDS011;50936;51.660;5.616;2022-12-07T16:01:50;3.17;;;1.38;;
64543;SDS011;50936;51.660;5.616;2022-12-07T16:04:17;6.30;;;1.83;;
64543;SDS011;50936;51.660;5.616;2022-12-07T16:06:44;7.28;;;2.53;;
64543;SDS011;50936;51.660;5.616;2022-12-07T16:09:11;6.25;;;2.70;;
64543;SDS011;50936;51.660;5.616;2022-12-07T16:11:38;5.43;;;2.83;;
64543;SDS011;50936;51.660;5.616;2022-12-07T16:14:05;7.00;;;3.45;;
64543;SDS011;50936;51.660;5.616;2022-12-07T16:16:32;9.77;;;3.15;;
64543;SDS011;50936;51.660;5.616;2022-12-07T16:18:59;9.40;;;3.70;;
64543;SDS011;50936;51.660;5.616;2022-12-07T16:21:26;10.27;;;3.28;;
64543;SDS011;50936;51.660;5.616;2022-12-07T16:23:52;7.10;;;3.10;;
64543;SDS011;50936;51.660;5.616;2022-12-07T16:26:21;6.68;;;3.08;;
64543;SDS011;50936;51.660;5.616;2022-12-07T16:28:48;6.70;;;2.45;;
64543;SDS011;50936;51.660;5.616;2022-12-07T16:31:17;7.57;;;3.55;;
64543;SDS011;50936;51.660;5.616;2022-12-07T16:33:47;5.13;;;3.15;;
64543;SDS011;50936;51.660;5.616;2022-12-07T16:36:15;4.88;;;2.40;;
64543;SDS011;50936;51.660;5.616;2022-12-07T16:39:04;8.55;;;2.60;;
64543;SDS011;50936;51.660;5.616;2022-12-07T16:41:32;8.30;;;3.60;;
64543;SDS011;50936;51.660;5.616;2022-12-07T16:44:03;13.73;;;5.13;;
64543;SDS011;50936;51.660;5.616;2022-12-07T16:46:33;11.02;;;4.63;;
64543;SDS011;50936;51.660;5.616;2022-12-07T16:49:02;8.88;;;3.92;;
64543;SDS011;50936;51.660;5.616;2022-12-07T16:51:30;11.15;;;4.00;;
64543;SDS011;50936;51.660;5.616;2022-12-07T16:53:58;6.63;;;2.45;;
64543;SDS011;50936;51.660;5.616;2022-12-07T16:56:25;3.10;;;2.28;;
64543;SDS011;50936;51.660;5.616;2022-12-07T16:58:53;12.98;;;2.97;;
64543;SDS011;50936;51.660;5.616;2022-12-07T17:01:21;8.27;;;3.80;;
64543;SDS011;50936;51.660;5.616;2022-12-07T17:03:49;7.25;;;2.85;;
64543;SDS011;50936;51.660;5.616;2022-12-07T17:06:20;6.03;;;2.60;;
64543;SDS011;50936;51.660;5.616;2022-12-07T17:08:50;10.48;;;5.30;;
64543;SDS011;50936;51.660;5.616;2022-12-07T17:11:19;10.55;;;4.95;;
64543;SDS011;50936;51.660;5.616;2022-12-07T17:13:59;13.10;;;6.05;;
64543;SDS011;50936;51.660;5.616;2022-12-07T17:16:45;9.52;;;5.25;;
64543;SDS011;50936;51.660;5.616;2022-12-07T17:19:15;14.95;;;6.75;;
64543;SDS011;50936;51.660;5.616;2022-12-07T17:21:43;14.60;;;7.35;;
64543;SDS011;50936;51.660;5.616;2022-12-07T17:24:11;16.95;;;7.53;;
64543;SDS011;50936;51.660;5.616;2022-12-07T17:26:42;9.38;;;5.35;;